createdAt,value
2018-08-07T00:02:27.589Z,21.00
2018-08-07T00:04:55.841Z,20.94
2018-08-07T00:07:24.223Z,20.97
2018-08-07T00:09:52.648Z,20.87
2018-08-07T00:12:20.916Z,20.85
2018-08-07T00:14:49.185Z,20.85
2018-08-07T00:17:17.444Z,20.94
2018-08-07T00:19:45.842Z,20.94
2018-08-07T00:22:14.092Z,20.84
2018-08-07T00:24:42.360Z,20.80
2018-08-07T00:27:10.624Z,20.75
2018-08-07T00:29:38.964Z,20.67
2018-08-07T00:32:07.280Z,20.69
2018-08-07T00:34:35.637Z,20.68
2018-08-07T00:37:05.041Z,20.70
2018-08-07T00:39:33.311Z,20.62
2018-08-07T00:42:01.585Z,20.56
2018-08-07T00:44:29.825Z,20.54
2018-08-07T00:46:58.115Z,20.56
2018-08-07T00:49:26.498Z,20.45
2018-08-07T00:51:54.765Z,20.44
2018-08-07T00:54:23.189Z,20.37
2018-08-07T00:56:51.555Z,20.48
2018-08-07T00:59:19.819Z,20.49
2018-08-07T01:01:48.083Z,20.38
2018-08-07T01:04:16.377Z,20.48
2018-08-07T01:06:44.786Z,20.45
2018-08-07T01:09:13.104Z,20.52
2018-08-07T01:11:41.386Z,20.46
2018-08-07T01:14:09.654Z,20.51
2018-08-07T01:16:37.909Z,20.48
2018-08-07T01:19:06.346Z,20.49
2018-08-07T01:21:34.621Z,20.38
2018-08-07T01:24:04.069Z,20.35
2018-08-07T01:26:32.319Z,20.36
2018-08-07T01:29:00.612Z,20.32
2018-08-07T01:31:31.061Z,20.33
2018-08-07T01:33:59.323Z,20.24
2018-08-07T01:36:27.576Z,20.08
2018-08-07T01:38:55.880Z,20.07
2018-08-07T01:41:24.141Z,20.07
2018-08-07T01:43:52.441Z,20.05
2018-08-07T01:46:20.716Z,20.14
2018-08-07T01:48:49.053Z,20.14
2018-08-07T01:51:17.349Z,20.23
2018-08-07T01:53:46.684Z,20.24
2018-08-07T01:56:14.948Z,20.24
2018-08-07T01:58:43.200Z,20.16
2018-08-07T02:01:11.589Z,20.10
2018-08-07T02:03:39.821Z,20.03
2018-08-07T02:06:08.143Z,20.02
2018-08-07T02:08:36.409Z,20.00
2018-08-07T02:11:04.743Z,20.00
2018-08-07T02:13:32.968Z,19.93
2018-08-07T02:16:01.246Z,19.96
2018-08-07T02:18:29.520Z,19.86
2018-08-07T02:20:57.824Z,19.80
2018-08-07T02:23:26.101Z,19.73
2018-08-07T02:25:54.384Z,19.64
2018-08-07T02:28:22.646Z,19.68
2018-08-07T02:30:50.961Z,19.69
2018-08-07T02:33:19.217Z,19.57
2018-08-07T02:35:47.530Z,19.55
2018-08-07T02:38:15.807Z,19.48
2018-08-07T02:40:44.077Z,19.48
2018-08-07T02:43:12.401Z,19.44
2018-08-07T02:45:40.697Z,19.42
2018-08-07T02:48:09.001Z,19.34
2018-08-07T02:50:37.294Z,19.35
2018-08-07T02:53:05.598Z,19.34
2018-08-07T02:55:33.845Z,19.40
2018-08-07T02:58:02.125Z,19.26
2018-08-07T03:00:34.529Z,19.21
2018-08-07T03:03:02.821Z,19.23
2018-08-07T03:05:31.081Z,19.23
2018-08-07T03:07:59.369Z,19.26
2018-08-07T03:10:27.617Z,19.30
2018-08-07T03:12:55.905Z,19.31
2018-08-07T03:15:24.162Z,19.20
2018-08-07T03:17:52.430Z,19.15
2018-08-07T03:20:21.757Z,19.08
2018-08-07T03:22:50.161Z,19.00
2018-08-07T03:25:18.437Z,19.01
2018-08-07T03:27:46.971Z,19.02
2018-08-07T03:30:16.952Z,19.05
2018-08-07T03:32:45.880Z,19.01
2018-08-07T03:35:14.167Z,19.02
2018-08-07T03:37:42.648Z,19.02
2018-08-07T03:40:14.877Z,19.07
2018-08-07T03:42:43.481Z,18.89
2018-08-07T03:45:13.573Z,18.89
2018-08-07T03:47:42.161Z,19.01
2018-08-07T03:50:11.083Z,18.94
2018-08-07T03:52:39.395Z,18.98
2018-08-07T03:55:09.708Z,19.04
2018-08-07T03:57:38.433Z,19.05
2018-08-07T04:00:09.789Z,19.07
2018-08-07T04:02:38.049Z,19.04
2018-08-07T04:05:07.178Z,19.13
2018-08-07T04:07:35.958Z,19.09
2018-08-07T04:10:05.157Z,19.10
2018-08-07T04:12:33.412Z,19.21
2018-08-07T04:15:01.697Z,19.22
2018-08-07T04:17:30.953Z,19.25
2018-08-07T04:19:59.231Z,19.24
2018-08-07T04:22:27.490Z,19.25
2018-08-07T04:24:55.908Z,19.26
2018-08-07T04:27:24.161Z,19.34
2018-08-07T04:29:52.521Z,19.45
2018-08-07T04:32:20.749Z,19.46
2018-08-07T04:34:49.129Z,19.54
2018-08-07T04:37:17.392Z,19.55
2018-08-07T04:39:45.650Z,19.64
2018-08-07T04:42:13.912Z,19.75
2018-08-07T04:44:42.165Z,19.79
2018-08-07T04:47:10.432Z,19.88
2018-08-07T04:49:38.687Z,19.98
2018-08-07T04:52:07.169Z,20.12
2018-08-07T04:54:35.441Z,20.16
2018-08-07T04:57:03.746Z,20.25
2018-08-07T04:59:32.009Z,20.33
2018-08-07T05:02:00.285Z,20.39
2018-08-07T05:04:28.646Z,20.51
2018-08-07T05:06:56.957Z,20.62
2018-08-07T05:09:25.219Z,20.77
2018-08-07T05:11:53.558Z,20.86
2018-08-07T05:14:21.900Z,21.13
2018-08-07T05:16:50.144Z,21.56
2018-08-07T05:19:18.489Z,21.88
2018-08-07T05:21:46.801Z,22.05
2018-08-07T05:24:15.083Z,22.02
2018-08-07T05:26:43.365Z,22.21
2018-08-07T05:29:11.689Z,22.28
2018-08-07T05:31:39.985Z,22.32
2018-08-07T05:34:08.401Z,22.42
2018-08-07T05:36:36.665Z,22.59
2018-08-07T05:39:07.780Z,22.58
2018-08-07T05:41:36.028Z,22.65
2018-08-07T05:44:04.570Z,22.74
2018-08-07T05:46:32.833Z,22.75
2018-08-07T05:49:01.124Z,22.92
2018-08-07T05:51:29.600Z,23.15
2018-08-07T05:53:58.335Z,23.27
2018-08-07T05:56:26.626Z,23.48
2018-08-07T05:58:55.089Z,23.44
2018-08-07T06:01:23.234Z,23.57
2018-08-07T06:03:51.549Z,23.65
2018-08-07T06:06:19.823Z,23.71
2018-08-07T06:08:48.194Z,23.51
2018-08-07T06:11:16.466Z,23.71
2018-08-07T06:13:44.777Z,23.83
2018-08-07T06:16:13.041Z,23.82
2018-08-07T06:18:41.349Z,23.94
2018-08-07T06:21:09.665Z,24.16
2018-08-07T06:23:37.981Z,24.27
2018-08-07T06:26:06.261Z,24.37
2018-08-07T06:28:34.659Z,24.53
2018-08-07T06:31:02.915Z,24.61
2018-08-07T06:33:32.189Z,24.92
2018-08-07T06:36:00.501Z,24.95
2018-08-07T06:38:28.772Z,24.67
2018-08-07T06:40:57.059Z,24.72
2018-08-07T06:43:25.329Z,24.99
2018-08-07T06:45:53.684Z,24.85
2018-08-07T06:48:21.921Z,24.97
2018-08-07T06:50:50.188Z,25.42
2018-08-07T06:53:18.448Z,25.39
2018-08-07T06:55:46.740Z,25.55
2018-08-07T06:58:14.993Z,25.82
2018-08-07T07:00:43.301Z,25.41
2018-08-07T07:03:11.589Z,25.75
2018-08-07T07:05:39.856Z,26.08
2018-08-07T07:08:08.153Z,26.41
2018-08-07T07:10:36.448Z,26.40
2018-08-07T07:13:04.797Z,26.69
2018-08-07T07:15:33.073Z,26.84
2018-08-07T07:18:01.357Z,26.96
2018-08-07T07:20:29.657Z,27.16
2018-08-07T07:22:57.984Z,27.24
2018-08-07T07:25:26.309Z,27.33
2018-08-07T07:27:54.621Z,27.35
2018-08-07T07:30:23.837Z,27.64
2018-08-07T07:32:53.741Z,27.69
2018-08-07T07:35:22.025Z,27.70
2018-08-07T07:37:50.577Z,27.74
2018-08-07T07:40:18.886Z,27.69
2018-08-07T07:42:47.244Z,27.79
2018-08-07T07:45:17.134Z,27.46
2018-08-07T07:47:45.620Z,27.70
2018-08-07T07:50:17.377Z,28.00
2018-08-07T07:52:46.002Z,28.09
2018-08-07T07:55:16.492Z,28.47
2018-08-07T07:57:44.803Z,28.42
2018-08-07T08:00:18.249Z,28.66
2018-08-07T08:02:46.601Z,28.49
2018-08-07T08:05:14.907Z,28.77
2018-08-07T08:07:43.205Z,28.41
2018-08-07T08:10:11.490Z,28.96
2018-08-07T08:12:40.385Z,29.10
2018-08-07T08:15:13.625Z,29.08
2018-08-07T08:17:42.369Z,29.16
2018-08-07T08:20:18.496Z,29.11
2018-08-07T08:22:47.254Z,29.52
2018-08-07T08:25:15.572Z,29.48
2018-08-07T08:27:43.909Z,29.72
2018-08-07T08:30:13.874Z,29.82
2018-08-07T08:32:42.754Z,30.24
2018-08-07T08:35:13.953Z,30.36
2018-08-07T08:37:43.097Z,30.15
2018-08-07T08:40:14.076Z,30.08
2018-08-07T08:42:42.337Z,30.35
2018-08-07T08:45:19.812Z,30.29
2018-08-07T08:47:49.784Z,30.30
2018-08-07T08:50:19.073Z,30.05
2018-08-07T08:52:47.469Z,30.57
2018-08-07T08:55:15.780Z,30.48
2018-08-07T08:57:44.756Z,30.85
2018-08-07T09:00:14.896Z,31.01
2018-08-07T09:02:44.482Z,30.90
2018-08-07T09:05:13.297Z,31.12
2018-08-07T09:07:42.379Z,31.17
2018-08-07T09:10:17.799Z,31.38
2018-08-07T09:12:46.236Z,31.62
2018-08-07T09:15:14.997Z,31.70
2018-08-07T09:17:43.312Z,31.49
2018-08-07T09:20:15.444Z,31.72
2018-08-07T09:22:43.950Z,31.90
2018-08-07T09:25:12.879Z,31.53
2018-08-07T09:27:41.889Z,31.56
2018-08-07T09:30:13.317Z,31.78
2018-08-07T09:32:41.625Z,31.92
2018-08-07T09:35:09.957Z,32.04
2018-08-07T09:37:39.013Z,31.49
2018-08-07T09:40:10.081Z,32.00
2018-08-07T09:42:38.297Z,31.83
2018-08-07T09:45:07.673Z,32.07
2018-08-07T09:47:36.017Z,32.23
2018-08-07T09:50:05.085Z,32.77
2018-08-07T09:52:33.388Z,32.51
2018-08-07T09:55:01.696Z,32.35
2018-08-07T09:57:30.092Z,32.38
2018-08-07T09:59:59.400Z,32.84
2018-08-07T10:02:33.205Z,32.64
2018-08-07T10:05:01.523Z,32.47
2018-08-07T10:07:29.808Z,32.66
2018-08-07T10:09:58.105Z,33.12
2018-08-07T10:12:26.458Z,33.07
2018-08-07T10:14:54.780Z,32.70
2018-08-07T10:17:23.096Z,32.56
2018-08-07T10:19:51.454Z,32.89
2018-08-07T10:22:19.877Z,32.83
2018-08-07T10:24:48.186Z,32.72
2018-08-07T10:27:16.525Z,33.17
2018-08-07T10:29:44.951Z,32.94
2018-08-07T10:32:13.317Z,32.98
2018-08-07T10:34:41.669Z,32.85
2018-08-07T10:37:09.958Z,33.04
2018-08-07T10:39:38.253Z,33.32
2018-08-07T10:42:06.573Z,33.74
2018-08-07T10:44:35.051Z,33.64
2018-08-07T10:47:04.434Z,33.85
2018-08-07T10:49:32.789Z,33.58
2018-08-07T10:52:01.092Z,33.69
2018-08-07T10:54:29.417Z,34.02
2018-08-07T10:56:57.729Z,34.02
2018-08-07T10:59:26.020Z,34.53
2018-08-07T11:01:54.317Z,34.31
2018-08-07T11:04:22.659Z,33.94
2018-08-07T11:06:50.988Z,34.12
2018-08-07T11:09:19.305Z,33.98
2018-08-07T11:11:47.681Z,34.12
2018-08-07T11:14:16.021Z,34.11
2018-08-07T11:16:44.300Z,34.06
2018-08-07T11:19:12.608Z,33.96
2018-08-07T11:21:40.937Z,34.44
2018-08-07T11:24:09.469Z,34.65
2018-08-07T11:26:37.796Z,34.79
2018-08-07T11:29:06.120Z,34.54
2018-08-07T11:31:34.461Z,34.75
2018-08-07T11:34:02.783Z,34.91
2018-08-07T11:36:31.185Z,34.64
2018-08-07T11:38:59.512Z,34.84
2018-08-07T11:41:27.860Z,34.44
2018-08-07T11:44:27.806Z,34.58
2018-08-07T11:46:56.149Z,34.80
2018-08-07T11:49:24.495Z,34.57
2018-08-07T11:51:52.820Z,34.53
2018-08-07T11:54:21.165Z,34.70
2018-08-07T11:56:49.472Z,34.66
2018-08-07T11:59:19.312Z,34.08
2018-08-07T12:01:48.331Z,34.63
2018-08-07T12:04:16.729Z,34.75
2018-08-07T12:06:45.053Z,34.77
2018-08-07T12:09:13.472Z,34.47
2018-08-07T12:11:41.801Z,34.43
2018-08-07T12:14:10.337Z,34.88
2018-08-07T12:16:38.725Z,34.86
2018-08-07T12:19:07.040Z,34.80
2018-08-07T12:21:35.369Z,34.55
2018-08-07T12:24:03.689Z,35.20
2018-08-07T12:26:31.990Z,35.10
2018-08-07T12:29:00.282Z,35.31
2018-08-07T12:31:28.653Z,35.00
2018-08-07T12:33:56.986Z,35.27
2018-08-07T12:36:25.273Z,35.50
2018-08-07T12:38:53.641Z,35.73
2018-08-07T12:41:21.951Z,35.09
2018-08-07T12:43:50.252Z,35.56
2018-08-07T12:46:18.573Z,35.74
2018-08-07T12:48:46.869Z,35.76
2018-08-07T12:51:15.172Z,35.82
2018-08-07T12:53:43.501Z,36.18
2018-08-07T12:56:11.856Z,36.03
2018-08-07T12:58:40.154Z,36.14
2018-08-07T13:01:08.485Z,35.42
2018-08-07T13:03:36.788Z,35.72
2018-08-07T13:06:05.077Z,36.00
2018-08-07T13:08:33.375Z,36.26
2018-08-07T13:11:01.670Z,36.40
2018-08-07T13:13:32.060Z,36.51
2018-08-07T13:16:00.348Z,36.64
2018-08-07T13:18:28.865Z,36.92
2018-08-07T13:20:57.229Z,36.46
2018-08-07T13:23:25.552Z,35.92
2018-08-07T13:25:54.109Z,36.10
2018-08-07T13:28:22.310Z,36.45
2018-08-07T13:30:50.689Z,36.56
2018-08-07T13:33:18.965Z,35.96
2018-08-07T13:35:47.333Z,36.45
2018-08-07T13:38:15.652Z,36.77
2018-08-07T13:40:45.073Z,37.10
2018-08-07T13:43:13.370Z,36.69
2018-08-07T13:45:41.689Z,37.45
2018-08-07T13:48:09.989Z,38.24
2018-08-07T13:50:38.305Z,38.67
2018-08-07T13:53:06.643Z,38.73
2018-08-07T13:55:35.073Z,38.32
2018-08-07T13:58:03.375Z,38.51
2018-08-07T14:00:31.728Z,39.21
2018-08-07T14:03:00.205Z,38.58
2018-08-07T14:05:29.180Z,37.83
2018-08-07T14:07:58.248Z,37.80
2018-08-07T14:10:28.084Z,39.48
2018-08-07T14:12:56.468Z,41.13
2018-08-07T14:15:26.319Z,42.68
2018-08-07T14:17:54.621Z,43.72
2018-08-07T14:20:22.944Z,44.47
2018-08-07T14:22:51.282Z,46.29
2018-08-07T14:25:22.072Z,48.65
2018-08-07T14:27:50.436Z,50.31
2018-08-07T14:30:25.421Z,49.78
2018-08-07T14:32:53.784Z,49.79
2018-08-07T14:35:22.236Z,50.02
2018-08-07T14:37:50.952Z,49.60
2018-08-07T14:40:20.499Z,48.97
2018-08-07T14:42:49.700Z,49.53
2018-08-07T14:45:20.240Z,50.64
2018-08-07T14:47:49.717Z,52.02
2018-08-07T14:50:20.453Z,51.32
2018-08-07T14:52:48.752Z,51.63
2018-08-07T14:55:17.074Z,51.78
2018-08-07T14:57:45.397Z,50.64
2018-08-07T15:00:15.751Z,48.71
2018-08-07T15:02:44.711Z,47.79
2018-08-07T15:05:12.969Z,50.13
2018-08-07T15:07:41.277Z,51.03
2018-08-07T15:10:13.996Z,51.67
2018-08-07T15:12:42.400Z,51.57
2018-08-07T15:15:15.796Z,49.95
2018-08-07T15:17:44.611Z,50.97
2018-08-07T15:20:14.583Z,48.12
2018-08-07T15:22:45.399Z,44.70
2018-08-07T15:25:15.761Z,44.80
2018-08-07T15:27:44.054Z,47.13
2018-08-07T15:30:16.203Z,48.74
2018-08-07T15:32:45.265Z,46.23
2018-08-07T15:35:14.541Z,47.05
2018-08-07T15:37:42.937Z,47.10
2018-08-07T15:40:11.928Z,45.26
2018-08-07T15:42:40.925Z,45.95
2018-08-07T15:45:10.049Z,45.86
2018-08-07T15:47:38.469Z,46.79
2018-08-07T15:50:10.388Z,44.16
2018-08-07T15:52:39.357Z,42.97
2018-08-07T15:55:08.111Z,43.01
2018-08-07T15:57:36.407Z,46.49
2018-08-07T16:00:07.209Z,45.42
2018-08-07T16:02:35.628Z,46.82
2018-08-07T16:05:04.201Z,49.14
2018-08-07T16:07:32.553Z,47.64
2018-08-07T16:10:00.825Z,46.82
2018-08-07T16:12:29.109Z,47.32
2018-08-07T16:14:57.350Z,48.34
2018-08-07T16:17:25.765Z,49.23
2018-08-07T16:19:54.039Z,49.76
2018-08-07T16:22:23.440Z,50.78
2018-08-07T16:24:51.659Z,49.49
2018-08-07T16:27:20.025Z,49.00
2018-08-07T16:29:49.516Z,49.01
2018-08-07T16:32:17.656Z,49.24
2018-08-07T16:34:45.925Z,47.75
2018-08-07T16:37:14.233Z,47.84
2018-08-07T16:39:42.644Z,48.72
2018-08-07T16:42:10.918Z,48.66
2018-08-07T16:44:39.193Z,49.31
2018-08-07T16:47:08.481Z,48.58
2018-08-07T16:49:36.741Z,48.84
2018-08-07T16:52:05.274Z,48.73
2018-08-07T16:54:33.608Z,48.62
2018-08-07T16:57:01.958Z,49.22
2018-08-07T16:59:30.301Z,48.47
2018-08-07T17:01:58.581Z,48.61
2018-08-07T17:04:26.903Z,47.89
2018-08-07T17:06:55.260Z,47.86
2018-08-07T17:09:23.553Z,47.11
2018-08-07T17:11:51.841Z,46.92
2018-08-07T17:14:20.153Z,45.20
2018-08-07T17:16:48.427Z,43.03
2018-08-07T17:19:16.739Z,40.88
2018-08-07T17:21:45.085Z,39.66
2018-08-07T17:24:13.370Z,38.72
2018-08-07T17:26:41.690Z,38.14
2018-08-07T17:29:10.097Z,37.47
2018-08-07T17:31:38.390Z,37.23
2018-08-07T17:34:06.880Z,37.12
2018-08-07T17:36:35.153Z,37.01
2018-08-07T17:39:03.545Z,36.92
2018-08-07T17:41:31.838Z,36.78
2018-08-07T17:44:00.085Z,36.56
2018-08-07T17:46:28.400Z,36.13
2018-08-07T17:48:56.657Z,35.99
2018-08-07T17:51:24.958Z,35.90
2018-08-07T17:53:53.233Z,35.69
2018-08-07T17:56:21.540Z,35.15
2018-08-07T17:58:49.880Z,34.75
2018-08-07T18:01:18.196Z,34.61
2018-08-07T18:03:46.537Z,34.37
2018-08-07T18:06:15.902Z,33.83
2018-08-07T18:08:44.224Z,33.75
2018-08-07T18:11:12.573Z,33.45
2018-08-07T18:13:40.892Z,33.48
2018-08-07T18:16:10.248Z,33.06
2018-08-07T18:18:38.602Z,32.97
2018-08-07T18:21:08.910Z,32.87
2018-08-07T18:23:37.169Z,32.51
2018-08-07T18:26:06.525Z,32.47
2018-08-07T18:28:34.840Z,32.37
2018-08-07T18:31:03.084Z,32.25
2018-08-07T18:33:32.421Z,31.99
2018-08-07T18:36:00.735Z,31.82
2018-08-07T18:38:30.086Z,31.76
2018-08-07T18:40:58.377Z,31.55
2018-08-07T18:43:26.666Z,31.40
2018-08-07T18:45:55.944Z,31.23
2018-08-07T18:48:24.235Z,31.13
2018-08-07T18:50:52.481Z,31.01
2018-08-07T18:53:20.780Z,30.86
2018-08-07T18:55:50.267Z,30.68
2018-08-07T18:58:18.565Z,30.41
2018-08-07T19:00:47.845Z,30.32
2018-08-07T19:03:16.169Z,30.23
2018-08-07T19:05:44.486Z,30.01
2018-08-07T19:08:12.762Z,29.88
2018-08-07T19:10:41.049Z,29.71
2018-08-07T19:13:09.353Z,29.67
2018-08-07T19:15:37.944Z,29.62
2018-08-07T19:18:06.582Z,29.52
2018-08-07T19:20:34.877Z,29.43
2018-08-07T19:23:03.243Z,29.36
2018-08-07T19:25:31.647Z,29.23
2018-08-07T19:28:00.305Z,29.15
2018-08-07T19:30:28.625Z,29.05
2018-08-07T19:32:57.005Z,28.84
2018-08-07T19:35:25.342Z,28.87
2018-08-07T19:37:53.672Z,28.81
2018-08-07T19:40:22.103Z,28.80
2018-08-07T19:42:51.469Z,28.64
2018-08-07T19:45:20.165Z,28.61
2018-08-07T19:47:48.921Z,28.54
2018-08-07T19:50:22.141Z,28.49
2018-08-07T19:52:50.483Z,28.40
2018-08-07T19:55:21.671Z,28.39
2018-08-07T19:57:50.964Z,28.32
2018-08-07T20:00:21.077Z,28.26
2018-08-07T20:02:49.827Z,28.22
2018-08-07T20:05:18.165Z,28.13
2018-08-07T20:07:46.516Z,28.12
2018-08-07T20:10:15.773Z,27.99
2018-08-07T20:12:44.169Z,27.94
2018-08-07T20:15:20.361Z,27.85
2018-08-07T20:17:49.217Z,27.85
2018-08-07T20:20:18.684Z,27.83
2018-08-07T20:22:47.134Z,27.75
2018-08-07T20:25:16.543Z,27.71
2018-08-07T20:27:44.861Z,27.66
2018-08-07T20:30:19.205Z,27.63
2018-08-07T20:32:50.981Z,27.52
2018-08-07T20:35:21.328Z,27.41
2018-08-07T20:37:49.676Z,27.39
2018-08-07T20:40:21.733Z,27.32
2018-08-07T20:42:51.445Z,27.29
2018-08-07T20:45:20.341Z,27.27
2018-08-07T20:47:48.674Z,27.18
2018-08-07T20:50:19.859Z,27.11
2018-08-07T20:52:49.637Z,27.05
2018-08-07T20:55:18.017Z,26.98
2018-08-07T20:57:51.940Z,26.85
2018-08-07T21:00:25.510Z,26.91
2018-08-07T21:02:55.892Z,26.74
2018-08-07T21:05:24.649Z,26.65
2018-08-07T21:07:53.164Z,26.56
2018-08-07T21:10:23.014Z,26.48
2018-08-07T21:12:51.378Z,26.38
2018-08-07T21:15:20.766Z,26.23
2018-08-07T21:17:51.148Z,26.25
2018-08-07T21:20:20.766Z,26.21
2018-08-07T21:22:49.624Z,26.24
2018-08-07T21:25:23.320Z,26.20
2018-08-07T21:27:59.786Z,26.12
2018-08-07T21:30:30.446Z,26.06
2018-08-07T21:32:58.805Z,26.06
2018-08-07T21:35:27.141Z,26.06
2018-08-07T21:37:56.804Z,26.01
2018-08-07T21:40:27.184Z,25.96
2018-08-07T21:42:56.376Z,25.84
2018-08-07T21:45:24.748Z,25.80
2018-08-07T21:47:53.112Z,25.68
2018-08-07T21:50:26.444Z,25.58
2018-08-07T21:52:54.765Z,25.59
2018-08-07T21:55:23.129Z,25.54
2018-08-07T21:57:51.415Z,25.47
2018-08-07T22:00:47.986Z,25.41
2018-08-07T22:03:17.404Z,25.38
2018-08-07T22:05:45.908Z,25.39
2018-08-07T22:08:15.017Z,25.41
2018-08-07T22:10:45.393Z,25.38
2018-08-07T22:13:14.907Z,25.31
2018-08-07T22:15:43.207Z,25.29
2018-08-07T22:18:16.429Z,25.32
2018-08-07T22:20:44.857Z,25.19
2018-08-07T22:23:14.254Z,25.21
2018-08-07T22:25:43.591Z,25.17
2018-08-07T22:28:11.878Z,25.08
2018-08-07T22:30:41.312Z,25.04
2018-08-07T22:33:09.600Z,25.03
2018-08-07T22:35:38.017Z,25.01
2018-08-07T22:38:06.313Z,24.98
2018-08-07T22:40:35.669Z,24.86
2018-08-07T22:43:07.925Z,24.81
2018-08-07T22:45:36.241Z,24.80
2018-08-07T22:48:08.429Z,24.76
2018-08-07T22:50:36.756Z,24.69
2018-08-07T22:53:06.239Z,24.56
2018-08-07T22:55:37.981Z,24.53
2018-08-07T22:58:08.322Z,24.53
2018-08-07T23:00:36.648Z,24.50
2018-08-07T23:03:05.624Z,24.47
2018-08-07T23:05:33.941Z,24.44
2018-08-07T23:08:02.356Z,24.54
2018-08-07T23:10:30.706Z,24.56
2018-08-07T23:12:59.085Z,24.67
2018-08-07T23:15:27.529Z,24.84
2018-08-07T23:17:55.797Z,25.08
2018-08-07T23:20:25.786Z,25.23
2018-08-07T23:22:55.473Z,25.45
2018-08-07T23:25:27.689Z,25.50
2018-08-07T23:27:55.980Z,25.69
2018-08-07T23:30:24.285Z,25.77
2018-08-07T23:32:52.604Z,25.77
2018-08-07T23:35:20.881Z,25.82
2018-08-07T23:37:49.453Z,25.88
2018-08-07T23:40:19.924Z,25.89
2018-08-07T23:42:48.236Z,25.99
2018-08-07T23:45:16.639Z,26.05
2018-08-07T23:47:44.986Z,26.13
2018-08-07T23:50:14.081Z,26.12
2018-08-07T23:52:42.413Z,26.18
2018-08-07T23:55:10.796Z,26.20
2018-08-07T23:57:39.092Z,26.16
